createdAt,value
2022-08-26T00:00:05.871Z,1015.44
2022-08-26T00:02:02.075Z,1015.44
2022-08-26T00:04:02.352Z,1015.55
2022-08-26T00:06:02.735Z,1015.55
2022-08-26T00:08:02.118Z,1015.51
2022-08-26T00:10:02.344Z,1015.51
2022-08-26T00:12:01.939Z,1015.69
2022-08-26T00:14:01.885Z,1015.69
2022-08-26T00:16:02.514Z,1015.56
2022-08-26T00:18:02.464Z,1015.56
2022-08-26T00:20:02.014Z,1015.63
2022-08-26T00:22:02.486Z,1015.63
2022-08-26T00:24:01.566Z,1015.57
2022-08-26T00:26:01.965Z,1015.57
2022-08-26T00:28:02.133Z,1015.41
2022-08-26T00:30:02.422Z,1015.41
2022-08-26T00:32:04.373Z,1015.35
2022-08-26T00:34:03.351Z,1015.35
2022-08-26T00:36:02.693Z,1015.39
2022-08-26T00:38:02.178Z,1015.39
2022-08-26T00:40:05.741Z,1015.35
2022-08-26T00:42:02.476Z,1015.35
2022-08-26T00:44:01.863Z,1015.49
2022-08-26T00:46:02.840Z,1015.49
2022-08-26T00:48:03.940Z,1015.45
2022-08-26T00:50:02.892Z,1015.45
2022-08-26T00:52:02.241Z,1015.41
2022-08-26T00:54:03.856Z,1015.41
2022-08-26T00:56:02.105Z,1015.52
2022-08-26T00:58:02.128Z,1015.52
2022-08-26T01:00:08.596Z,1015.56
2022-08-26T01:02:03.385Z,1015.56
2022-08-26T01:04:02.509Z,1015.56
2022-08-26T01:06:04.444Z,1015.56
2022-08-26T01:08:03.942Z,1015.59
2022-08-26T01:10:01.791Z,1015.59
2022-08-26T01:12:03.149Z,1015.45
2022-08-26T01:14:02.966Z,1015.45
2022-08-26T01:16:02.608Z,1015.48
2022-08-26T01:18:02.051Z,1015.48
2022-08-26T01:20:02.092Z,1015.47
2022-08-26T01:22:02.109Z,1015.47
2022-08-26T01:24:02.256Z,1015.4
2022-08-26T01:26:02.630Z,1015.4
2022-08-26T01:28:02.098Z,1015.46
2022-08-26T01:30:02.665Z,1015.46
2022-08-26T01:32:05.287Z,1015.52
2022-08-26T01:34:01.860Z,1015.52
2022-08-26T01:36:01.892Z,1015.48
2022-08-26T01:38:02.415Z,1015.56
2022-08-26T01:40:02.778Z,1015.56
2022-08-26T01:42:03.557Z,1015.55
2022-08-26T01:44:02.280Z,1015.55
2022-08-26T01:46:02.146Z,1015.68
2022-08-26T01:48:02.405Z,1015.68
2022-08-26T01:50:03.274Z,1015.72
2022-08-26T01:52:03.274Z,1015.72
2022-08-26T01:54:02.767Z,1015.7
2022-08-26T01:56:03.319Z,1015.7
2022-08-26T01:58:02.434Z,1015.81
2022-08-26T02:00:05.047Z,1015.81
2022-08-26T02:02:02.842Z,1015.66
2022-08-26T02:04:01.745Z,1015.66
2022-08-26T02:06:01.611Z,1015.52
2022-08-26T02:08:02.987Z,1015.52
2022-08-26T02:10:03.555Z,1015.68
2022-08-26T02:12:02.064Z,1015.68
2022-08-26T02:14:03.629Z,1015.59
2022-08-26T02:16:02.413Z,1015.59
2022-08-26T02:18:02.329Z,1015.53
2022-08-26T02:20:02.647Z,1015.53
2022-08-26T02:22:03.652Z,1015.67
2022-08-26T02:24:02.448Z,1015.67
2022-08-26T02:26:02.173Z,1015.67
2022-08-26T02:28:03.156Z,1015.67
2022-08-26T02:30:02.762Z,1015.59
2022-08-26T02:32:01.919Z,1015.59
2022-08-26T02:34:02.483Z,1015.6
2022-08-26T02:36:03.617Z,1015.6
2022-08-26T02:38:11.248Z,1015.62
2022-08-26T02:40:03.364Z,1015.62
2022-08-26T02:42:02.380Z,1015.5
2022-08-26T02:44:01.871Z,1015.5
2022-08-26T02:46:02.884Z,1015.48
2022-08-26T02:48:01.833Z,1015.48
2022-08-26T02:50:02.133Z,1015.51
2022-08-26T02:52:03.487Z,1015.51
2022-08-26T02:54:01.934Z,1015.47
2022-08-26T02:56:03.300Z,1015.47
2022-08-26T02:58:03.127Z,1015.5
2022-08-26T03:00:05.799Z,1015.5
2022-08-26T03:02:01.954Z,1015.61
2022-08-26T03:04:01.558Z,1015.61
2022-08-26T03:06:02.473Z,1015.55
2022-08-26T03:08:02.269Z,1015.55
2022-08-26T03:10:08.946Z,1015.51
2022-08-26T03:12:02.170Z,1015.51
2022-08-26T03:14:03.975Z,1015.49
2022-08-26T03:16:01.946Z,1015.49
2022-08-26T03:18:02.251Z,1015.51
2022-08-26T03:20:02.031Z,1015.51
2022-08-26T03:22:01.884Z,1015.65
2022-08-26T03:24:02.097Z,1015.65
2022-08-26T03:26:02.499Z,1015.37
2022-08-26T03:28:02.745Z,1015.37
2022-08-26T03:30:02.816Z,1015.45
2022-08-26T03:32:02.419Z,1015.45
2022-08-26T03:34:02.047Z,1015.41
2022-08-26T03:36:02.627Z,1015.41
2022-08-26T03:38:02.180Z,1015.47
2022-08-26T03:40:02.706Z,1015.47
2022-08-26T03:42:02.743Z,1015.46
2022-08-26T03:44:03.653Z,1015.46
2022-08-26T03:46:04.087Z,1015.38
2022-08-26T03:48:02.094Z,1015.38
2022-08-26T03:50:02.505Z,1015.36
2022-08-26T03:52:02.024Z,1015.36
2022-08-26T03:54:02.799Z,1015.35
2022-08-26T03:56:01.676Z,1015.35
2022-08-26T03:58:02.802Z,1015.35
2022-08-26T04:00:05.167Z,1015.35
2022-08-26T04:02:02.540Z,1015.31
2022-08-26T04:04:03.513Z,1015.31
2022-08-26T04:06:01.824Z,1015.4
2022-08-26T04:08:02.550Z,1015.4
2022-08-26T04:10:02.343Z,1015.31
2022-08-26T04:12:03.625Z,1015.31
2022-08-26T04:14:02.351Z,1015.46
2022-08-26T04:16:01.935Z,1015.46
2022-08-26T04:18:03.064Z,1015.32
2022-08-26T04:20:01.965Z,1015.32
2022-08-26T04:22:02.084Z,1015.36
2022-08-26T04:24:04.176Z,1015.36
2022-08-26T04:26:01.861Z,1015.4
2022-08-26T04:28:02.079Z,1015.4
2022-08-26T04:30:02.428Z,1015.5
2022-08-26T04:32:02.229Z,1015.5
2022-08-26T04:34:02.667Z,1015.35
2022-08-26T04:36:02.094Z,1015.35
2022-08-26T04:38:06.066Z,1015.41
2022-08-26T04:40:04.275Z,1015.41
2022-08-26T04:42:02.243Z,1015.34
2022-08-26T04:44:01.910Z,1015.34
2022-08-26T04:46:01.730Z,1015.33
2022-08-26T04:48:04.483Z,1015.33
2022-08-26T04:50:02.711Z,1015.46
2022-08-26T04:52:02.695Z,1015.46
2022-08-26T04:54:02.532Z,1015.55
2022-08-26T04:56:04.099Z,1015.55
2022-08-26T04:58:02.174Z,1015.57
2022-08-26T05:00:05.129Z,1015.57
2022-08-26T05:02:02.373Z,1015.52
2022-08-26T05:04:08.079Z,1015.52
2022-08-26T05:06:03.248Z,1015.67
2022-08-26T05:08:01.795Z,1015.67
2022-08-26T05:10:03.593Z,1015.74
2022-08-26T05:12:03.177Z,1015.67
2022-08-26T05:14:02.810Z,1015.67
2022-08-26T05:16:01.963Z,1015.74
2022-08-26T05:18:02.153Z,1015.74
2022-08-26T05:20:02.403Z,1015.75
2022-08-26T05:22:03.153Z,1015.75
2022-08-26T05:24:02.376Z,1015.69
2022-08-26T05:26:05.373Z,1015.69
2022-08-26T05:28:01.863Z,1015.69
2022-08-26T05:30:02.410Z,1015.69
2022-08-26T05:32:02.686Z,1015.79
2022-08-26T05:34:04.021Z,1015.79
2022-08-26T05:36:01.567Z,1015.77
2022-08-26T05:38:05.887Z,1015.77
2022-08-26T05:40:01.966Z,1015.77
2022-08-26T05:42:02.481Z,1015.77
2022-08-26T05:44:01.885Z,1015.8
2022-08-26T05:46:06.080Z,1015.8
2022-08-26T05:48:02.203Z,1015.85
2022-08-26T05:50:01.871Z,1015.85
2022-08-26T05:52:01.845Z,1015.91
2022-08-26T05:54:03.771Z,1015.91
2022-08-26T05:56:01.759Z,1015.91
2022-08-26T05:58:03.044Z,1015.91
2022-08-26T06:00:06.650Z,1015.91
2022-08-26T06:02:01.749Z,1015.91
2022-08-26T06:04:02.380Z,1015.92
2022-08-26T06:06:03.188Z,1015.92
2022-08-26T06:08:02.380Z,1015.93
2022-08-26T06:10:32.927Z,1015.93
2022-08-26T06:12:02.238Z,1015.95
2022-08-26T06:14:04.486Z,1015.95
2022-08-26T06:16:02.401Z,1016.11
2022-08-26T06:18:01.858Z,1016.11
2022-08-26T06:20:02.524Z,1016.04
2022-08-26T06:22:01.711Z,1016.04
2022-08-26T06:24:01.934Z,1016.04
2022-08-26T06:26:02.528Z,1016.04
2022-08-26T06:28:03.208Z,1016.02
2022-08-26T06:30:02.182Z,1016.02
2022-08-26T06:32:02.555Z,1016.1
2022-08-26T06:34:01.675Z,1016.1
2022-08-26T06:36:01.640Z,1016.11
2022-08-26T06:38:03.630Z,1016.11
2022-08-26T06:40:04.074Z,1016.24
2022-08-26T06:42:03.395Z,1016.24
2022-08-26T06:44:02.084Z,1016.26
2022-08-26T06:46:04.948Z,1016.26
2022-08-26T06:48:01.633Z,1016.27
2022-08-26T06:50:02.357Z,1016.27
2022-08-26T06:52:02.100Z,1016.36
2022-08-26T06:54:01.676Z,1016.36
2022-08-26T06:56:01.693Z,1016.39
2022-08-26T06:58:04.530Z,1016.39
2022-08-26T07:00:06.671Z,1016.47
2022-08-26T07:02:02.533Z,1016.47
2022-08-26T07:04:02.317Z,1016.48
2022-08-26T07:06:03.736Z,1016.48
2022-08-26T07:08:01.850Z,1016.35
2022-08-26T07:10:02.637Z,1016.35
2022-08-26T07:12:03.195Z,1016.34
2022-08-26T07:14:01.776Z,1016.34
2022-08-26T07:16:04.453Z,1016.24
2022-08-26T07:18:01.695Z,1016.24
2022-08-26T07:20:02.082Z,1016.32
2022-08-26T07:22:01.584Z,1016.32
2022-08-26T07:24:02.420Z,1016.55
2022-08-26T07:26:01.622Z,1016.55
2022-08-26T07:28:03.423Z,1016.48
2022-08-26T07:30:02.854Z,1016.48
2022-08-26T07:32:02.063Z,1016.55
2022-08-26T07:34:04.026Z,1016.55
2022-08-26T07:36:04.516Z,1016.55
2022-08-26T07:38:02.457Z,1016.55
2022-08-26T07:40:02.341Z,1016.65
2022-08-26T07:42:08.201Z,1016.65
2022-08-26T07:44:04.525Z,1016.64
2022-08-26T07:46:02.238Z,1016.64
2022-08-26T07:48:04.194Z,1016.69
2022-08-26T07:50:01.794Z,1016.69
2022-08-26T07:52:02.220Z,1016.71
2022-08-26T07:54:01.593Z,1016.71
2022-08-26T07:56:02.466Z,1016.87
2022-08-26T07:58:02.411Z,1016.87
2022-08-26T08:00:05.395Z,1016.94
2022-08-26T08:02:03.468Z,1016.94
2022-08-26T08:04:02.572Z,1016.91
2022-08-26T08:06:02.322Z,1016.91
2022-08-26T08:08:29.425Z,1016.98
2022-08-26T08:10:11.362Z,1016.98
2022-08-26T08:12:02.165Z,1017.07
2022-08-26T08:14:11.652Z,1017.07
2022-08-26T08:16:01.629Z,1017
2022-08-26T08:18:04.474Z,1017
2022-08-26T08:20:02.144Z,1017.08
2022-08-26T08:22:02.206Z,1017.08
2022-08-26T08:24:01.769Z,1016.94
2022-08-26T08:26:01.594Z,1016.94
2022-08-26T08:28:02.025Z,1016.89
2022-08-26T08:30:02.268Z,1016.89
2022-08-26T08:32:02.410Z,1016.88
2022-08-26T08:34:02.785Z,1016.88
2022-08-26T08:36:02.179Z,1016.98
2022-08-26T08:38:04.497Z,1017
2022-08-26T08:40:02.483Z,1017
2022-08-26T08:42:02.755Z,1017.13
2022-08-26T08:44:02.007Z,1017.13
2022-08-26T08:46:04.570Z,1017.05
2022-08-26T08:48:06.935Z,1017.05
2022-08-26T08:50:02.162Z,1017.17
2022-08-26T08:52:04.363Z,1017.17
2022-08-26T08:54:02.351Z,1016.99
2022-08-26T08:56:02.110Z,1016.99
2022-08-26T08:58:02.815Z,1017.03
2022-08-26T09:00:05.715Z,1017.03
2022-08-26T09:02:02.462Z,1017.04
2022-08-26T09:04:01.812Z,1017.04
2022-08-26T09:06:02.454Z,1017.01
2022-08-26T09:08:02.663Z,1017.01
2022-08-26T09:10:02.586Z,1017.08
2022-08-26T09:12:03.049Z,1017.08
2022-08-26T09:14:01.892Z,1017.07
2022-08-26T09:16:02.395Z,1017.07
2022-08-26T09:18:06.098Z,1017.11
2022-08-26T09:20:01.822Z,1017.11
2022-08-26T09:22:09.434Z,1017.12
2022-08-26T09:24:02.590Z,1017.12
2022-08-26T09:26:01.906Z,1017.14
2022-08-26T09:28:03.875Z,1017.14
2022-08-26T09:30:02.003Z,1017.21
2022-08-26T09:32:02.240Z,1017.21
2022-08-26T09:34:02.326Z,1017.16
2022-08-26T09:36:03.092Z,1017.16
2022-08-26T09:38:02.590Z,1017.17
2022-08-26T09:40:02.536Z,1017.17
2022-08-26T09:42:02.833Z,1017.18
2022-08-26T09:44:02.469Z,1017.18
2022-08-26T09:46:02.530Z,1017.24
2022-08-26T09:48:01.829Z,1017.24
2022-08-26T09:50:02.452Z,1017.16
2022-08-26T09:52:03.593Z,1017.16
2022-08-26T09:54:01.922Z,1017.04
2022-08-26T09:56:02.405Z,1017.04
2022-08-26T09:58:09.587Z,1016.91
2022-08-26T10:00:08.139Z,1016.91
2022-08-26T10:04:02.324Z,1016.92
2022-08-26T10:06:02.893Z,1017.16
2022-08-26T10:08:01.770Z,1017.16
2022-08-26T10:10:02.220Z,1017.09
2022-08-26T10:12:02.270Z,1017.09
2022-08-26T10:14:02.532Z,1017.23
2022-08-26T10:16:02.210Z,1017.23
2022-08-26T10:18:03.760Z,1017.25
2022-08-26T10:20:03.182Z,1017.25
2022-08-26T10:22:02.142Z,1017.3
2022-08-26T10:24:01.898Z,1017.3
2022-08-26T10:26:01.746Z,1017.2
2022-08-26T10:28:02.201Z,1017.2
2022-08-26T10:30:01.818Z,1017.09
2022-08-26T10:32:03.911Z,1017.09
2022-08-26T10:34:02.248Z,1017.18
2022-08-26T10:36:02.003Z,1017.18
2022-08-26T10:38:02.420Z,1017.15
2022-08-26T10:40:02.778Z,1017.15
2022-08-26T10:42:01.987Z,1017.19
2022-08-26T10:44:01.608Z,1017.19
2022-08-26T10:46:01.953Z,1017.17
2022-08-26T10:48:01.945Z,1017.17
2022-08-26T10:50:03.858Z,1017.12
2022-08-26T10:52:01.812Z,1017.12
2022-08-26T10:54:03.505Z,1017.17
2022-08-26T10:56:02.239Z,1017.17
2022-08-26T10:58:08.151Z,1017.26
2022-08-26T11:00:06.781Z,1017.26
2022-08-26T11:02:04.264Z,1017.14
2022-08-26T11:04:02.210Z,1017.14
2022-08-26T11:06:02.373Z,1017.16
2022-08-26T11:08:02.493Z,1017.16
2022-08-26T11:10:03.206Z,1017.3
2022-08-26T11:12:10.703Z,1017.3
2022-08-26T11:14:02.040Z,1017.25
2022-08-26T11:16:02.425Z,1017.25
2022-08-26T11:18:02.809Z,1017.32
2022-08-26T11:20:13.595Z,1017.32
2022-08-26T11:22:02.238Z,1017.32
2022-08-26T11:24:02.816Z,1017.32
2022-08-26T11:26:02.290Z,1017.21
2022-08-26T11:28:01.689Z,1017.21
2022-08-26T11:30:01.646Z,1017.29
2022-08-26T11:32:03.005Z,1017.29
2022-08-26T11:34:02.887Z,1017.16
2022-08-26T11:36:12.757Z,1017.16
2022-08-26T11:38:04.492Z,1017.34
2022-08-26T11:40:03.386Z,1017.34
2022-08-26T11:42:02.208Z,1017.25
2022-08-26T11:44:02.708Z,1017.25
2022-08-26T11:46:02.818Z,1017.23
2022-08-26T11:48:02.258Z,1017.23
2022-08-26T11:50:01.946Z,1017.33
2022-08-26T11:52:02.275Z,1017.33
2022-08-26T11:54:02.507Z,1017.22
2022-08-26T11:56:01.668Z,1017.22
2022-08-26T11:58:01.845Z,1017.19
2022-08-26T12:00:10.803Z,1017.25
2022-08-26T12:02:02.267Z,1017.25
2022-08-26T12:04:01.892Z,1017.23
2022-08-26T12:06:02.899Z,1017.23
2022-08-26T12:08:01.790Z,1017.26
2022-08-26T12:10:02.714Z,1017.26
2022-08-26T12:12:02.447Z,1017.25
2022-08-26T12:14:02.346Z,1017.25
2022-08-26T12:16:03.297Z,1017.16
2022-08-26T12:18:01.994Z,1017.16
2022-08-26T12:20:01.951Z,1017.24
2022-08-26T12:22:02.102Z,1017.24
2022-08-26T12:24:01.842Z,1017.09
2022-08-26T12:26:02.764Z,1017.09
2022-08-26T12:28:02.479Z,1017.1
2022-08-26T12:30:02.385Z,1017.1
2022-08-26T12:32:02.382Z,1017.09
2022-08-26T12:34:02.171Z,1017.09
2022-08-26T12:36:02.018Z,1017.19
2022-08-26T12:38:02.244Z,1017.19
2022-08-26T12:40:03.545Z,1017.09
2022-08-26T12:42:01.853Z,1017.09
2022-08-26T12:44:02.216Z,1017.12
2022-08-26T12:46:01.973Z,1017.12
2022-08-26T12:48:02.099Z,1017.26
2022-08-26T12:50:01.998Z,1017.26
2022-08-26T12:52:02.533Z,1017.3
2022-08-26T12:54:01.972Z,1017.3
2022-08-26T12:56:02.098Z,1017.36
2022-08-26T12:58:02.600Z,1017.36
2022-08-26T13:00:05.571Z,1017.32
2022-08-26T13:02:02.173Z,1017.32
2022-08-26T13:04:01.710Z,1017.22
2022-08-26T13:06:01.648Z,1017.22
2022-08-26T13:08:01.752Z,1017.4
2022-08-26T13:10:02.416Z,1017.4
2022-08-26T13:12:02.614Z,1017.34
2022-08-26T13:14:02.095Z,1017.34
2022-08-26T13:16:02.717Z,1017.25
2022-08-26T13:18:02.021Z,1017.25
2022-08-26T13:20:04.851Z,1017.23
2022-08-26T13:22:01.821Z,1017.23
2022-08-26T13:24:01.994Z,1017.25
2022-08-26T13:26:02.352Z,1017.25
2022-08-26T13:28:02.415Z,1017.42
2022-08-26T13:30:02.008Z,1017.42
2022-08-26T13:32:01.832Z,1017.22
2022-08-26T13:34:02.385Z,1017.22
2022-08-26T13:36:01.717Z,1017.32
2022-08-26T13:38:02.252Z,1017.32
2022-08-26T13:40:02.251Z,1017.39
2022-08-26T13:42:02.267Z,1017.39
2022-08-26T13:44:02.157Z,1017.31
2022-08-26T13:46:02.227Z,1017.31
2022-08-26T13:48:02.595Z,1017.35
2022-08-26T13:50:01.909Z,1017.35
2022-08-26T13:52:02.322Z,1017.38
2022-08-26T13:54:01.878Z,1017.38
2022-08-26T13:56:02.214Z,1017.29
2022-08-26T13:58:02.276Z,1017.29
2022-08-26T14:00:11.418Z,1017.34
2022-08-26T14:02:01.819Z,1017.34
2022-08-26T14:04:02.311Z,1017.31
2022-08-26T14:06:01.952Z,1017.31
2022-08-26T14:08:02.756Z,1017.29
2022-08-26T14:10:02.104Z,1017.29
2022-08-26T14:12:03.137Z,1017.16
2022-08-26T14:14:02.283Z,1017.16
2022-08-26T14:16:02.007Z,1017.18
2022-08-26T14:18:02.439Z,1017.18
2022-08-26T14:20:01.844Z,1017.19
2022-08-26T14:22:01.956Z,1017.19
2022-08-26T14:24:02.210Z,1017.13
2022-08-26T14:26:02.536Z,1017.13
2022-08-26T14:28:02.030Z,1017.06
2022-08-26T14:30:02.183Z,1017.06
2022-08-26T14:32:02.448Z,1017.01
2022-08-26T14:34:01.797Z,1017.01
2022-08-26T14:36:02.148Z,1017.1
2022-08-26T14:38:01.553Z,1017.1
2022-08-26T14:40:02.148Z,1017.13
2022-08-26T14:42:02.051Z,1017.13
2022-08-26T14:44:01.956Z,1017.15
2022-08-26T14:46:02.454Z,1017.15
2022-08-26T14:48:02.219Z,1017.03
2022-08-26T14:50:02.428Z,1017.03
2022-08-26T14:52:02.519Z,1017
2022-08-26T14:54:01.989Z,1017
2022-08-26T14:56:02.505Z,1017.09
2022-08-26T14:58:01.763Z,1017.09
2022-08-26T15:00:05.724Z,1017.11
2022-08-26T15:02:02.222Z,1017.11
2022-08-26T15:04:02.493Z,1017.07
2022-08-26T15:06:01.973Z,1017.07
2022-08-26T15:08:02.010Z,1017.04
2022-08-26T15:10:02.173Z,1017.04
2022-08-26T15:12:02.367Z,1017.18
2022-08-26T15:14:01.761Z,1017.18
2022-08-26T15:16:02.198Z,1017.12
2022-08-26T15:18:02.670Z,1017.12
2022-08-26T15:20:01.843Z,1017.1
2022-08-26T15:22:02.452Z,1017.02
2022-08-26T15:24:02.043Z,1017.02
2022-08-26T15:26:02.631Z,1017.14
2022-08-26T15:28:01.660Z,1017.14
2022-08-26T15:30:02.081Z,1017.07
2022-08-26T15:32:02.297Z,1017.07
2022-08-26T15:34:02.526Z,1016.99
2022-08-26T15:36:01.719Z,1016.99
2022-08-26T15:38:02.205Z,1017
2022-08-26T15:40:02.276Z,1017
2022-08-26T15:42:02.213Z,1016.99
2022-08-26T15:44:03.796Z,1016.99
2022-08-26T15:46:02.472Z,1016.93
2022-08-26T15:48:03.134Z,1016.93
2022-08-26T15:50:02.028Z,1016.85
2022-08-26T15:52:05.552Z,1016.85
2022-08-26T15:54:02.039Z,1016.9
2022-08-26T15:56:02.326Z,1016.9
2022-08-26T15:58:02.453Z,1016.93
2022-08-26T16:00:09.675Z,1016.93
2022-08-26T16:02:02.085Z,1016.88
2022-08-26T16:04:02.306Z,1016.88
2022-08-26T16:06:02.370Z,1016.84
2022-08-26T16:08:02.494Z,1016.84
2022-08-26T16:10:01.895Z,1016.76
2022-08-26T16:12:02.738Z,1016.76
2022-08-26T16:14:01.753Z,1016.8
2022-08-26T16:16:04.402Z,1016.8
2022-08-26T16:18:02.446Z,1016.72
2022-08-26T16:20:02.378Z,1016.72
2022-08-26T16:22:02.172Z,1016.81
2022-08-26T16:24:02.533Z,1016.81
2022-08-26T16:26:01.846Z,1016.82
2022-08-26T16:28:06.321Z,1016.82
2022-08-26T16:30:01.888Z,1016.72
2022-08-26T16:32:01.976Z,1016.72
2022-08-26T16:34:01.985Z,1016.8
2022-08-26T16:36:02.007Z,1016.8
2022-08-26T16:38:02.673Z,1016.7
2022-08-26T16:40:02.716Z,1016.7
2022-08-26T16:42:01.732Z,1016.73
2022-08-26T16:44:01.859Z,1016.73
2022-08-26T16:46:01.971Z,1016.71
2022-08-26T16:48:01.987Z,1016.71
2022-08-26T16:50:02.152Z,1016.82
2022-08-26T16:52:02.073Z,1016.82
2022-08-26T16:54:02.340Z,1016.73
2022-08-26T16:56:01.665Z,1016.73
2022-08-26T16:58:01.812Z,1016.83
2022-08-26T17:00:07.144Z,1016.83
2022-08-26T17:02:02.763Z,1016.73
2022-08-26T17:04:02.118Z,1016.73
2022-08-26T17:06:02.190Z,1016.74
2022-08-26T17:08:01.787Z,1016.74
2022-08-26T17:10:02.346Z,1016.8
2022-08-26T17:12:03.012Z,1016.8
2022-08-26T17:14:01.999Z,1016.85
2022-08-26T17:16:04.509Z,1016.85
2022-08-26T17:18:02.337Z,1016.82
2022-08-26T17:20:02.521Z,1016.82
2022-08-26T17:22:06.284Z,1016.84
2022-08-26T17:24:02.196Z,1016.84
2022-08-26T17:26:02.576Z,1016.85
2022-08-26T17:28:01.992Z,1016.85
2022-08-26T17:30:02.555Z,1016.91
2022-08-26T17:32:02.337Z,1016.91
2022-08-26T17:34:01.588Z,1016.93
2022-08-26T17:36:02.181Z,1016.93
2022-08-26T17:38:01.925Z,1017.11
2022-08-26T17:40:02.267Z,1017.11
2022-08-26T17:42:01.968Z,1017.02
2022-08-26T17:44:01.600Z,1017.02
2022-08-26T17:46:07.839Z,1016.81
2022-08-26T17:48:01.895Z,1016.81
2022-08-26T17:50:02.384Z,1016.91
2022-08-26T17:52:01.782Z,1016.91
2022-08-26T17:54:02.368Z,1016.84
2022-08-26T17:56:02.460Z,1016.84
2022-08-26T17:58:07.426Z,1016.95
2022-08-26T18:00:05.510Z,1016.95
2022-08-26T18:02:01.843Z,1016.92
2022-08-26T18:04:02.281Z,1016.92
2022-08-26T18:06:02.273Z,1017.1
2022-08-26T18:08:02.310Z,1017.1
2022-08-26T18:10:02.007Z,1016.97
2022-08-26T18:12:01.791Z,1016.97
2022-08-26T18:14:02.093Z,1017.03
2022-08-26T18:16:02.188Z,1017.03
2022-08-26T18:18:02.521Z,1016.91
2022-08-26T18:20:01.846Z,1016.91
2022-08-26T18:22:01.828Z,1017.01
2022-08-26T18:24:01.627Z,1017.01
2022-08-26T18:26:02.407Z,1017.03
2022-08-26T18:28:01.837Z,1017.03
2022-08-26T18:30:02.277Z,1017.15
2022-08-26T18:32:02.470Z,1017.15
2022-08-26T18:34:01.662Z,1017.14
2022-08-26T18:36:01.976Z,1017.14
2022-08-26T18:38:12.149Z,1017.23
2022-08-26T18:40:04.254Z,1017.23
2022-08-26T18:42:01.922Z,1017.17
2022-08-26T18:44:02.108Z,1017.17
2022-08-26T18:46:02.460Z,1017.31
2022-08-26T18:48:01.965Z,1017.08
2022-08-26T18:50:02.147Z,1017.08
2022-08-26T18:52:01.958Z,1017.33
2022-08-26T18:54:01.820Z,1017.33
2022-08-26T18:56:01.972Z,1017.3
2022-08-26T18:58:02.678Z,1017.3
2022-08-26T19:00:05.199Z,1017.25
2022-08-26T19:02:02.762Z,1017.25
2022-08-26T19:04:01.824Z,1017.41
2022-08-26T19:06:01.639Z,1017.41
2022-08-26T19:08:01.630Z,1017.34
2022-08-26T19:10:05.588Z,1017.34
2022-08-26T19:12:02.151Z,1017.31
2022-08-26T19:14:02.248Z,1017.31
2022-08-26T19:16:01.906Z,1017.33
2022-08-26T19:18:01.705Z,1017.33
2022-08-26T19:20:02.036Z,1017.38
2022-08-26T19:22:02.481Z,1017.38
2022-08-26T19:24:01.569Z,1017.42
2022-08-26T19:26:01.925Z,1017.42
2022-08-26T19:28:02.334Z,1017.49
2022-08-26T19:30:01.992Z,1017.49
2022-08-26T19:32:02.207Z,1017.37
2022-08-26T19:34:01.795Z,1017.37
2022-08-26T19:36:06.686Z,1017.47
2022-08-26T19:38:01.998Z,1017.47
2022-08-26T19:40:02.263Z,1017.55
2022-08-26T19:42:01.668Z,1017.55
2022-08-26T19:44:04.286Z,1017.47
2022-08-26T19:46:02.137Z,1017.47
2022-08-26T19:48:02.784Z,1017.53
2022-08-26T19:50:03.529Z,1017.53
2022-08-26T19:52:02.134Z,1017.49
2022-08-26T19:54:02.309Z,1017.49
2022-08-26T19:56:02.442Z,1017.41
2022-08-26T19:58:02.234Z,1017.41
2022-08-26T20:00:05.289Z,1017.41
2022-08-26T20:02:03.620Z,1017.41
2022-08-26T20:04:02.128Z,1017.45
2022-08-26T20:06:02.073Z,1017.45
2022-08-26T20:08:02.060Z,1017.51
2022-08-26T20:10:01.754Z,1017.51
2022-08-26T20:12:01.676Z,1017.51
2022-08-26T20:14:01.826Z,1017.51
2022-08-26T20:16:02.115Z,1017.47
2022-08-26T20:18:02.521Z,1017.47
2022-08-26T20:20:01.907Z,1017.5
2022-08-26T20:22:01.752Z,1017.5
2022-08-26T20:24:02.203Z,1017.63
2022-08-26T20:26:02.304Z,1017.63
2022-08-26T20:28:01.919Z,1017.53
2022-08-26T20:30:02.288Z,1017.53
2022-08-26T20:32:02.473Z,1017.53
2022-08-26T20:34:02.224Z,1017.53
2022-08-26T20:36:07.458Z,1017.58
2022-08-26T20:38:01.848Z,1017.58
2022-08-26T20:40:02.532Z,1017.57
2022-08-26T20:42:01.697Z,1017.57
2022-08-26T20:44:02.101Z,1017.55
2022-08-26T20:46:01.832Z,1017.55
2022-08-26T20:48:02.152Z,1017.59
2022-08-26T20:50:01.842Z,1017.59
2022-08-26T20:52:02.327Z,1017.56
2022-08-26T20:54:02.614Z,1017.56
2022-08-26T20:56:01.909Z,1017.55
2022-08-26T20:58:01.638Z,1017.55
2022-08-26T21:00:07.785Z,1017.57
2022-08-26T21:02:02.044Z,1017.57
2022-08-26T21:04:02.543Z,1017.51
2022-08-26T21:06:01.796Z,1017.51
2022-08-26T21:08:01.619Z,1017.46
2022-08-26T21:10:01.687Z,1017.46
2022-08-26T21:12:01.865Z,1017.45
2022-08-26T21:14:16.162Z,1017.45
2022-08-26T21:16:01.872Z,1017.42
2022-08-26T21:18:01.691Z,1017.42
2022-08-26T21:20:02.682Z,1017.44
2022-08-26T21:22:01.769Z,1017.44
2022-08-26T21:24:02.319Z,1017.37
2022-08-26T21:26:01.973Z,1017.37
2022-08-26T21:28:01.705Z,1017.47
2022-08-26T21:30:01.697Z,1017.47
2022-08-26T21:32:02.626Z,1017.54
2022-08-26T21:34:01.767Z,1017.54
2022-08-26T21:36:02.258Z,1017.38
2022-08-26T21:38:01.676Z,1017.38
2022-08-26T21:40:02.135Z,1017.48
2022-08-26T21:42:02.421Z,1017.48
2022-08-26T21:44:01.827Z,1017.37
2022-08-26T21:46:02.699Z,1017.37
2022-08-26T21:48:02.865Z,1017.43
2022-08-26T21:50:02.269Z,1017.43
2022-08-26T21:52:02.478Z,1017.35
2022-08-26T21:54:01.780Z,1017.35
2022-08-26T21:56:02.369Z,1017.26
2022-08-26T21:58:01.911Z,1017.26
2022-08-26T22:00:05.064Z,1017.45
2022-08-26T22:02:02.441Z,1017.45
2022-08-26T22:04:02.529Z,1017.46
2022-08-26T22:06:01.984Z,1017.46
2022-08-26T22:08:02.180Z,1017.47
2022-08-26T22:10:02.427Z,1017.47
2022-08-26T22:12:01.875Z,1017.51
2022-08-26T22:14:02.355Z,1017.46
2022-08-26T22:16:01.871Z,1017.46
2022-08-26T22:18:01.775Z,1017.53
2022-08-26T22:20:01.769Z,1017.53
2022-08-26T22:22:02.211Z,1017.51
2022-08-26T22:24:02.180Z,1017.51
2022-08-26T22:26:02.234Z,1017.49
2022-08-26T22:28:02.475Z,1017.49
2022-08-26T22:30:01.837Z,1017.52
2022-08-26T22:32:02.218Z,1017.52
2022-08-26T22:34:01.724Z,1017.65
2022-08-26T22:36:02.365Z,1017.65
2022-08-26T22:38:02.060Z,1017.54
2022-08-26T22:40:02.683Z,1017.54
2022-08-26T22:42:01.813Z,1017.53
2022-08-26T22:44:02.577Z,1017.53
2022-08-26T22:46:01.805Z,1017.52
2022-08-26T22:48:01.895Z,1017.52
2022-08-26T22:50:02.681Z,1017.49
2022-08-26T22:52:02.248Z,1017.49
2022-08-26T22:54:02.551Z,1017.46
2022-08-26T22:56:03.402Z,1017.46
2022-08-26T22:58:01.862Z,1017.51
2022-08-26T23:00:05.539Z,1017.51
2022-08-26T23:02:01.731Z,1017.48
2022-08-26T23:04:02.100Z,1017.48
2022-08-26T23:06:01.880Z,1017.41
2022-08-26T23:08:02.740Z,1017.41
2022-08-26T23:10:02.178Z,1017.36
2022-08-26T23:12:02.220Z,1017.36
2022-08-26T23:14:07.153Z,1017.44
2022-08-26T23:16:02.405Z,1017.44
2022-08-26T23:18:01.831Z,1017.45
2022-08-26T23:20:02.454Z,1017.45
2022-08-26T23:22:02.288Z,1017.37
2022-08-26T23:24:02.186Z,1017.37
2022-08-26T23:26:06.517Z,1017.46
2022-08-26T23:28:02.401Z,1017.46
2022-08-26T23:30:01.872Z,1017.35
2022-08-26T23:32:02.574Z,1017.35
2022-08-26T23:34:03.094Z,1017.37
2022-08-26T23:36:04.292Z,1017.37
2022-08-26T23:38:02.422Z,1017.4
2022-08-26T23:40:03.532Z,1017.4
2022-08-26T23:42:02.224Z,1017.25
2022-08-26T23:44:03.976Z,1017.25
2022-08-26T23:46:02.371Z,1017.24
2022-08-26T23:48:01.753Z,1017.24
2022-08-26T23:50:01.871Z,1017.23
2022-08-26T23:52:02.031Z,1017.23
2022-08-26T23:54:02.087Z,1017.25
2022-08-26T23:56:02.351Z,1017.25
2022-08-26T23:58:01.848Z,1017.23
